This is the latest recevied weather packets stored in our database for station/object ZR6G-15. If no packets are shown the sender has not sent any weather packets the latest 10 day(s).
| Time | Temp. | Humidity | Pressure | Rain* | Wind** | Luminosity | Snow |
|---|---|---|---|---|---|---|---|
| 1777462657 | 22.78° C | 17% | 1011.3 hPa | - | - | - | - |
| 1777462052 | 22.78° C | 17% | 1011.4 hPa | - | - | - | - |
| 1777461448 | 23.89° C | 17% | 1011.4 hPa | - | - | - | - |
| 1777460843 | 22.78° C | 17% | 1011.6 hPa | - | - | - | - |
| 1777460239 | 22.78° C | 17% | 1011.7 hPa | - | - | - | - |
| 1777459634 | 23.89° C | 17% | 1011.8 hPa | - | - | - | - |
| 1777459029 | 22.78° C | 17% | 1012 hPa | - | - | - | - |
| 1777458424 | 22.78° C | 17% | 1012.2 hPa | - | - | - | - |
| 1777457820 | 22.78° C | 17% | 1012.7 hPa | - | - | - | - |
| 1777457218 | 22.78° C | 17% | 1012.5 hPa | - | - | - | - |
| 1777456611 | 22.78° C | 17% | 1012.8 hPa | - | - | - | - |
| 1777456006 | 22.78° C | 17% | 1013.1 hPa | - | - | - | - |
| 1777455401 | 22.78° C | 17% | 1013.3 hPa | - | - | - | - |
| 1777454796 | 22.78° C | 17% | 1013.5 hPa | - | - | - | - |
| 1777454191 | 22.78° C | 17% | 1013.8 hPa | - | - | - | - |
| 1777453586 | 21.67° C | 17% | 1014.3 hPa | - | - | - | - |
| 1777452978 | 20.56° C | 17% | 1014.8 hPa | - | - | - | - |
| 1777452374 | 20.56° C | 17% | 1015.6 hPa | - | - | - | - |
| 1777451769 | 18.89° C | 18% | 1016.1 hPa | - | - | - | - |
| 1777451168 | 18.89° C | 18% | 1016.7 hPa | - | - | - | - |
| 1777450559 | 17.78° C | 18% | 1017.2 hPa | - | - | - | - |
| 1777449955 | 16.67° C | 18% | 1017.9 hPa | - | - | - | - |
| 1777449350 | 15.56° C | 18% | 1018.7 hPa | - | - | - | - |
| 1777448745 | 15° C | 19% | 1019.2 hPa | - | - | - | - |
| 1777448141 | 13.89° C | 19% | 1019.8 hPa | - | - | - | - |
* Rain since midnight (hover to see other rain measurements)
** Current wind speed in m/s (hover to see current wind gust speed)